sensor_id;sensor_type;location;lat;lon;timestamp;temperature;humidity
68439;SHT31;55421;51.600;5.718;2023-11-19T00:00:58;12.60;95.70
68439;SHT31;55421;51.600;5.718;2023-11-19T00:03:44;12.60;95.67
68439;SHT31;55421;51.600;5.718;2023-11-19T00:06:11;12.63;95.60
68439;SHT31;55421;51.600;5.718;2023-11-19T00:08:37;12.62;95.61
68439;SHT31;55421;51.600;5.718;2023-11-19T00:11:04;12.63;95.58
68439;SHT31;55421;51.600;5.718;2023-11-19T00:13:31;12.63;95.57
68439;SHT31;55421;51.600;5.718;2023-11-19T00:15:57;12.64;95.60
68439;SHT31;55421;51.600;5.718;2023-11-19T00:18:23;12.65;95.60
68439;SHT31;55421;51.600;5.718;2023-11-19T00:20:50;12.66;95.60
68439;SHT31;55421;51.600;5.718;2023-11-19T00:23:16;12.68;95.59
68439;SHT31;55421;51.600;5.718;2023-11-19T00:25:43;12.70;95.60
68439;SHT31;55421;51.600;5.718;2023-11-19T00:28:10;12.71;95.58
68439;SHT31;55421;51.600;5.718;2023-11-19T00:30:36;12.71;95.50
68439;SHT31;55421;51.600;5.718;2023-11-19T00:33:03;12.71;95.50
68439;SHT31;55421;51.600;5.718;2023-11-19T00:35:29;12.74;95.45
68439;SHT31;55421;51.600;5.718;2023-11-19T00:37:57;12.74;95.46
68439;SHT31;55421;51.600;5.718;2023-11-19T00:40:24;12.77;95.48
68439;SHT31;55421;51.600;5.718;2023-11-19T00:42:52;12.79;95.42
68439;SHT31;55421;51.600;5.718;2023-11-19T00:45:19;12.81;95.40
68439;SHT31;55421;51.600;5.718;2023-11-19T00:47:45;12.84;95.39
68439;SHT31;55421;51.600;5.718;2023-11-19T00:50:12;12.85;95.30
68439;SHT31;55421;51.600;5.718;2023-11-19T00:52:39;12.84;95.22
68439;SHT31;55421;51.600;5.718;2023-11-19T00:55:05;12.86;95.20
68439;SHT31;55421;51.600;5.718;2023-11-19T00:57:33;12.86;95.19
68439;SHT31;55421;51.600;5.718;2023-11-19T00:59:59;12.88;95.19
68439;SHT31;55421;51.600;5.718;2023-11-19T01:02:26;12.89;95.12
68439;SHT31;55421;51.600;5.718;2023-11-19T01:04:52;12.90;95.12
68439;SHT31;55421;51.600;5.718;2023-11-19T01:07:18;12.93;95.10
68439;SHT31;55421;51.600;5.718;2023-11-19T01:09:45;12.94;95.05
68439;SHT31;55421;51.600;5.718;2023-11-19T01:12:11;12.95;95.00
68439;SHT31;55421;51.600;5.718;2023-11-19T01:14:38;12.97;94.99
68439;SHT31;55421;51.600;5.718;2023-11-19T01:17:05;12.98;94.90
68439;SHT31;55421;51.600;5.718;2023-11-19T01:19:31;12.99;94.87
68439;SHT31;55421;51.600;5.718;2023-11-19T01:21:58;13.00;94.80
68439;SHT31;55421;51.600;5.718;2023-11-19T01:24:24;13.00;94.79
68439;SHT31;55421;51.600;5.718;2023-11-19T01:26:54;13.00;94.71
68439;SHT31;55421;51.600;5.718;2023-11-19T01:29:21;13.00;94.63
68439;SHT31;55421;51.600;5.718;2023-11-19T01:31:47;12.99;94.60
68439;SHT31;55421;51.600;5.718;2023-11-19T01:34:13;12.99;94.60
68439;SHT31;55421;51.600;5.718;2023-11-19T01:36:40;13.00;94.59
68439;SHT31;55421;51.600;5.718;2023-11-19T01:39:06;12.99;94.52
68439;SHT31;55421;51.600;5.718;2023-11-19T01:41:36;12.98;94.45
68439;SHT31;55421;51.600;5.718;2023-11-19T01:44:08;12.97;94.39
68439;SHT31;55421;51.600;5.718;2023-11-19T01:46:34;12.97;94.40
68439;SHT31;55421;51.600;5.718;2023-11-19T01:49:02;12.97;94.40
68439;SHT31;55421;51.600;5.718;2023-11-19T01:51:31;12.98;94.36
68439;SHT31;55421;51.600;5.718;2023-11-19T01:53:58;12.99;94.31
68439;SHT31;55421;51.600;5.718;2023-11-19T01:56:25;12.98;94.25
68439;SHT31;55421;51.600;5.718;2023-11-19T01:58:53;12.97;94.19
68439;SHT31;55421;51.600;5.718;2023-11-19T02:01:22;12.97;94.16
68439;SHT31;55421;51.600;5.718;2023-11-19T02:03:48;12.97;94.09
68439;SHT31;55421;51.600;5.718;2023-11-19T02:06:15;12.95;94.07
68439;SHT31;55421;51.600;5.718;2023-11-19T02:08:42;12.95;94.00
68439;SHT31;55421;51.600;5.718;2023-11-19T02:11:09;12.92;93.89
68439;SHT31;55421;51.600;5.718;2023-11-19T02:13:38;12.89;93.79
68439;SHT31;55421;51.600;5.718;2023-11-19T02:16:07;12.85;93.73
68439;SHT31;55421;51.600;5.718;2023-11-19T02:18:37;12.82;93.76
68439;SHT31;55421;51.600;5.718;2023-11-19T02:21:03;12.81;93.72
68439;SHT31;55421;51.600;5.718;2023-11-19T02:23:31;12.80;93.73
68439;SHT31;55421;51.600;5.718;2023-11-19T02:26:00;12.79;93.70
68439;SHT31;55421;51.600;5.718;2023-11-19T02:28:35;12.77;93.70
68439;SHT31;55421;51.600;5.718;2023-11-19T02:31:03;12.78;93.69
68439;SHT31;55421;51.600;5.718;2023-11-19T02:33:37;12.79;93.65
68439;SHT31;55421;51.600;5.718;2023-11-19T02:36:05;12.80;93.50
68439;SHT31;55421;51.600;5.718;2023-11-19T02:38:36;12.83;93.38
68439;SHT31;55421;51.600;5.718;2023-11-19T02:41:03;12.84;93.31
68439;SHT31;55421;51.600;5.718;2023-11-19T02:43:36;12.84;93.22
68439;SHT31;55421;51.600;5.718;2023-11-19T02:46:05;12.85;93.14
68439;SHT31;55421;51.600;5.718;2023-11-19T02:48:35;12.85;93.09
68439;SHT31;55421;51.600;5.718;2023-11-19T02:51:05;12.86;93.01
68439;SHT31;55421;51.600;5.718;2023-11-19T02:53:35;12.88;92.99
68439;SHT31;55421;51.600;5.718;2023-11-19T02:56:06;12.88;92.90
68439;SHT31;55421;51.600;5.718;2023-11-19T02:58:46;12.88;92.81
68439;SHT31;55421;51.600;5.718;2023-11-19T03:01:13;12.88;92.72
68439;SHT31;55421;51.600;5.718;2023-11-19T03:03:49;12.88;92.62
68439;SHT31;55421;51.600;5.718;2023-11-19T03:06:27;12.86;92.50
68439;SHT31;55421;51.600;5.718;2023-11-19T03:08:55;12.85;92.45
68439;SHT31;55421;51.600;5.718;2023-11-19T03:11:22;12.83;92.36
68439;SHT31;55421;51.600;5.718;2023-11-19T03:13:48;12.79;92.25
68439;SHT31;55421;51.600;5.718;2023-11-19T03:16:15;12.75;92.14
68439;SHT31;55421;51.600;5.718;2023-11-19T03:18:42;12.72;92.10
68439;SHT31;55421;51.600;5.718;2023-11-19T03:21:09;12.66;92.07
68439;SHT31;55421;51.600;5.718;2023-11-19T03:23:36;12.60;92.00
68439;SHT31;55421;51.600;5.718;2023-11-19T03:26:03;12.55;92.00
68439;SHT31;55421;51.600;5.718;2023-11-19T03:28:31;12.50;92.00
68439;SHT31;55421;51.600;5.718;2023-11-19T03:30:58;12.44;91.98
68439;SHT31;55421;51.600;5.718;2023-11-19T03:33:25;12.39;92.00
68439;SHT31;55421;51.600;5.718;2023-11-19T03:35:54;12.35;92.02
68439;SHT31;55421;51.600;5.718;2023-11-19T03:38:23;12.31;92.00
68439;SHT31;55421;51.600;5.718;2023-11-19T03:40:51;12.27;92.01
68439;SHT31;55421;51.600;5.718;2023-11-19T03:43:17;12.24;92.03
68439;SHT31;55421;51.600;5.718;2023-11-19T03:45:45;12.21;92.02
68439;SHT31;55421;51.600;5.718;2023-11-19T03:48:12;12.17;92.01
68439;SHT31;55421;51.600;5.718;2023-11-19T03:50:42;12.15;92.00
68439;SHT31;55421;51.600;5.718;2023-11-19T03:53:09;12.13;91.93
68439;SHT31;55421;51.600;5.718;2023-11-19T03:55:35;12.11;91.89
68439;SHT31;55421;51.600;5.718;2023-11-19T03:58:02;12.09;91.80
68439;SHT31;55421;51.600;5.718;2023-11-19T04:00:28;12.08;91.65
68439;SHT31;55421;51.600;5.718;2023-11-19T04:02:55;12.06;91.53
68439;SHT31;55421;51.600;5.718;2023-11-19T04:05:22;12.06;91.40
68439;SHT31;55421;51.600;5.718;2023-11-19T04:07:48;12.04;91.34
68439;SHT31;55421;51.600;5.718;2023-11-19T04:10:15;12.02;91.30
68439;SHT31;55421;51.600;5.718;2023-11-19T04:12:42;12.01;91.27
68439;SHT31;55421;51.600;5.718;2023-11-19T04:15:09;11.99;91.24
68439;SHT31;55421;51.600;5.718;2023-11-19T04:17:37;11.97;91.21
68439;SHT31;55421;51.600;5.718;2023-11-19T04:20:04;11.97;91.20
68439;SHT31;55421;51.600;5.718;2023-11-19T04:22:32;11.95;91.18
68439;SHT31;55421;51.600;5.718;2023-11-19T04:24:58;11.94;91.19
68439;SHT31;55421;51.600;5.718;2023-11-19T04:27:25;11.93;91.15
68439;SHT31;55421;51.600;5.718;2023-11-19T04:29:51;11.92;91.19
68439;SHT31;55421;51.600;5.718;2023-11-19T04:32:18;11.89;91.18
68439;SHT31;55421;51.600;5.718;2023-11-19T04:34:45;11.87;91.19
68439;SHT31;55421;51.600;5.718;2023-11-19T04:37:11;11.86;91.20
68439;SHT31;55421;51.600;5.718;2023-11-19T04:39:38;11.84;91.20
68439;SHT31;55421;51.600;5.718;2023-11-19T04:42:04;11.85;91.14
68439;SHT31;55421;51.600;5.718;2023-11-19T04:44:32;11.86;91.04
68439;SHT31;55421;51.600;5.718;2023-11-19T04:46:59;11.87;90.95
68439;SHT31;55421;51.600;5.718;2023-11-19T04:49:25;11.88;90.86
68439;SHT31;55421;51.600;5.718;2023-11-19T04:51:53;11.88;90.67
68439;SHT31;55421;51.600;5.718;2023-11-19T04:54:19;11.87;90.55
68439;SHT31;55421;51.600;5.718;2023-11-19T04:56:46;11.88;90.49
68439;SHT31;55421;51.600;5.718;2023-11-19T04:59:13;11.87;90.41
68439;SHT31;55421;51.600;5.718;2023-11-19T05:01:40;11.86;90.39
68439;SHT31;55421;51.600;5.718;2023-11-19T05:04:07;11.84;90.36
68439;SHT31;55421;51.600;5.718;2023-11-19T05:06:34;11.83;90.30
68439;SHT31;55421;51.600;5.718;2023-11-19T05:09:01;11.81;90.30
68439;SHT31;55421;51.600;5.718;2023-11-19T05:11:31;11.80;90.30
68439;SHT31;55421;51.600;5.718;2023-11-19T05:13:57;11.79;90.26
68439;SHT31;55421;51.600;5.718;2023-11-19T05:16:24;11.79;90.20
68439;SHT31;55421;51.600;5.718;2023-11-19T05:18:50;11.78;90.16
68439;SHT31;55421;51.600;5.718;2023-11-19T05:21:17;11.77;90.12
68439;SHT31;55421;51.600;5.718;2023-11-19T05:23:44;11.77;90.03
68439;SHT31;55421;51.600;5.718;2023-11-19T05:26:17;11.76;90.06
68439;SHT31;55421;51.600;5.718;2023-11-19T05:28:47;11.76;90.04
68439;SHT31;55421;51.600;5.718;2023-11-19T05:31:15;11.74;90.01
68439;SHT31;55421;51.600;5.718;2023-11-19T05:33:43;11.73;90.07
68439;SHT31;55421;51.600;5.718;2023-11-19T05:36:10;11.72;90.04
68439;SHT31;55421;51.600;5.718;2023-11-19T05:38:38;11.71;90.01
68439;SHT31;55421;51.600;5.718;2023-11-19T05:41:05;11.69;89.99
68439;SHT31;55421;51.600;5.718;2023-11-19T05:43:32;11.69;90.00
68439;SHT31;55421;51.600;5.718;2023-11-19T05:45:59;11.68;89.92
68439;SHT31;55421;51.600;5.718;2023-11-19T05:48:27;11.66;89.90
68439;SHT31;55421;51.600;5.718;2023-11-19T05:50:54;11.66;89.84
68439;SHT31;55421;51.600;5.718;2023-11-19T05:53:21;11.66;89.74
68439;SHT31;55421;51.600;5.718;2023-11-19T05:55:47;11.66;89.61
68439;SHT31;55421;51.600;5.718;2023-11-19T05:58:25;11.67;89.42
68439;SHT31;55421;51.600;5.718;2023-11-19T06:00:56;11.67;89.40
68439;SHT31;55421;51.600;5.718;2023-11-19T06:03:23;11.66;89.24
68439;SHT31;55421;51.600;5.718;2023-11-19T06:05:50;11.66;89.10
68439;SHT31;55421;51.600;5.718;2023-11-19T06:08:16;11.66;89.07
68439;SHT31;55421;51.600;5.718;2023-11-19T06:10:43;11.65;89.02
68439;SHT31;55421;51.600;5.718;2023-11-19T06:13:13;11.64;89.00
68439;SHT31;55421;51.600;5.718;2023-11-19T06:15:42;11.62;89.00
68439;SHT31;55421;51.600;5.718;2023-11-19T06:18:09;11.60;89.00
68439;SHT31;55421;51.600;5.718;2023-11-19T06:20:37;11.58;89.00
68439;SHT31;55421;51.600;5.718;2023-11-19T06:23:04;11.56;89.00
68439;SHT31;55421;51.600;5.718;2023-11-19T06:25:31;11.53;89.01
68439;SHT31;55421;51.600;5.718;2023-11-19T06:27:57;11.52;89.01
68439;SHT31;55421;51.600;5.718;2023-11-19T06:30:25;11.51;89.03
68439;SHT31;55421;51.600;5.718;2023-11-19T06:32:51;11.49;89.09
68439;SHT31;55421;51.600;5.718;2023-11-19T06:35:18;11.48;89.08
68439;SHT31;55421;51.600;5.718;2023-11-19T06:37:44;11.46;89.15
68439;SHT31;55421;51.600;5.718;2023-11-19T06:40:11;11.44;89.10
68439;SHT31;55421;51.600;5.718;2023-11-19T06:42:38;11.43;89.13
68439;SHT31;55421;51.600;5.718;2023-11-19T06:45:05;11.42;89.12
68439;SHT31;55421;51.600;5.718;2023-11-19T06:47:32;11.42;89.18
68439;SHT31;55421;51.600;5.718;2023-11-19T06:50:00;11.42;89.10
68439;SHT31;55421;51.600;5.718;2023-11-19T06:52:30;11.40;89.10
68439;SHT31;55421;51.600;5.718;2023-11-19T06:54:57;11.39;89.10
68439;SHT31;55421;51.600;5.718;2023-11-19T06:57:23;11.38;89.05
68439;SHT31;55421;51.600;5.718;2023-11-19T06:59:50;11.37;89.04
68439;SHT31;55421;51.600;5.718;2023-11-19T07:02:16;11.36;89.00
68439;SHT31;55421;51.600;5.718;2023-11-19T07:04:43;11.37;89.00
68439;SHT31;55421;51.600;5.718;2023-11-19T07:07:09;11.36;88.96
68439;SHT31;55421;51.600;5.718;2023-11-19T07:09:36;11.35;88.90
68439;SHT31;55421;51.600;5.718;2023-11-19T07:12:03;11.33;88.90
68439;SHT31;55421;51.600;5.718;2023-11-19T07:14:30;11.33;88.90
68439;SHT31;55421;51.600;5.718;2023-11-19T07:16:57;11.33;88.89
68439;SHT31;55421;51.600;5.718;2023-11-19T07:19:23;11.31;88.83
68439;SHT31;55421;51.600;5.718;2023-11-19T07:21:50;11.32;88.80
68439;SHT31;55421;51.600;5.718;2023-11-19T07:24:16;11.33;88.79
68439;SHT31;55421;51.600;5.718;2023-11-19T07:26:43;11.33;88.71
68439;SHT31;55421;51.600;5.718;2023-11-19T07:29:11;11.34;88.66
68439;SHT31;55421;51.600;5.718;2023-11-19T07:31:38;11.37;88.68
68439;SHT31;55421;51.600;5.718;2023-11-19T07:34:04;11.37;88.61
68439;SHT31;55421;51.600;5.718;2023-11-19T07:36:32;11.38;88.49
68439;SHT31;55421;51.600;5.718;2023-11-19T07:38:59;11.41;88.43
68439;SHT31;55421;51.600;5.718;2023-11-19T07:41:25;11.42;88.33
68439;SHT31;55421;51.600;5.718;2023-11-19T07:43:52;11.44;88.21
68439;SHT31;55421;51.600;5.718;2023-11-19T07:46:19;11.45;88.16
68439;SHT31;55421;51.600;5.718;2023-11-19T07:48:46;11.46;88.18
68439;SHT31;55421;51.600;5.718;2023-11-19T07:51:18;11.47;88.10
68439;SHT31;55421;51.600;5.718;2023-11-19T07:53:45;11.48;88.08
68439;SHT31;55421;51.600;5.718;2023-11-19T07:56:11;11.50;88.04
68439;SHT31;55421;51.600;5.718;2023-11-19T07:58:38;11.51;87.93
68439;SHT31;55421;51.600;5.718;2023-11-19T08:01:04;11.53;87.92
68439;SHT31;55421;51.600;5.718;2023-11-19T08:03:31;11.54;87.90
68439;SHT31;55421;51.600;5.718;2023-11-19T08:06:00;11.57;87.87
68439;SHT31;55421;51.600;5.718;2023-11-19T08:08:28;11.59;87.84
68439;SHT31;55421;51.600;5.718;2023-11-19T08:10:59;11.62;87.80
68439;SHT31;55421;51.600;5.718;2023-11-19T08:13:26;11.66;87.68
68439;SHT31;55421;51.600;5.718;2023-11-19T08:15:53;11.71;87.59
68439;SHT31;55421;51.600;5.718;2023-11-19T08:18:19;11.76;87.48
68439;SHT31;55421;51.600;5.718;2023-11-19T08:20:46;11.81;87.47
68439;SHT31;55421;51.600;5.718;2023-11-19T08:23:16;11.85;87.16
68439;SHT31;55421;51.600;5.718;2023-11-19T08:25:42;11.92;87.13
68439;SHT31;55421;51.600;5.718;2023-11-19T08:28:09;11.98;87.08
68439;SHT31;55421;51.600;5.718;2023-11-19T08:30:36;12.03;86.88
68439;SHT31;55421;51.600;5.718;2023-11-19T08:33:02;12.08;86.69
68439;SHT31;55421;51.600;5.718;2023-11-19T08:35:29;12.12;86.58
68439;SHT31;55421;51.600;5.718;2023-11-19T08:37:56;12.15;86.60
68439;SHT31;55421;51.600;5.718;2023-11-19T08:40:23;12.19;86.52
68439;SHT31;55421;51.600;5.718;2023-11-19T08:42:49;12.23;86.26
68439;SHT31;55421;51.600;5.718;2023-11-19T08:45:16;12.27;86.14
68439;SHT31;55421;51.600;5.718;2023-11-19T08:47:43;12.32;86.04
68439;SHT31;55421;51.600;5.718;2023-11-19T08:50:11;12.35;85.92
68439;SHT31;55421;51.600;5.718;2023-11-19T08:52:38;12.40;85.88
68439;SHT31;55421;51.600;5.718;2023-11-19T08:55:05;12.45;85.79
68439;SHT31;55421;51.600;5.718;2023-11-19T08:57:32;12.48;85.87
68439;SHT31;55421;51.600;5.718;2023-11-19T09:00:01;12.51;85.61
68439;SHT31;55421;51.600;5.718;2023-11-19T09:02:36;12.53;85.57
68439;SHT31;55421;51.600;5.718;2023-11-19T09:05:04;12.55;85.60
68439;SHT31;55421;51.600;5.718;2023-11-19T09:07:33;12.61;85.68
68439;SHT31;55421;51.600;5.718;2023-11-19T09:10:00;12.67;85.59
68439;SHT31;55421;51.600;5.718;2023-11-19T09:12:26;12.72;85.53
68439;SHT31;55421;51.600;5.718;2023-11-19T09:14:53;12.79;85.58
68439;SHT31;55421;51.600;5.718;2023-11-19T09:17:20;12.86;85.45
68439;SHT31;55421;51.600;5.718;2023-11-19T09:19:46;12.91;85.25
68439;SHT31;55421;51.600;5.718;2023-11-19T09:22:13;12.98;85.26
68439;SHT31;55421;51.600;5.718;2023-11-19T09:24:40;13.02;84.98
68439;SHT31;55421;51.600;5.718;2023-11-19T09:27:07;13.04;85.05
68439;SHT31;55421;51.600;5.718;2023-11-19T09:29:33;13.05;84.84
68439;SHT31;55421;51.600;5.718;2023-11-19T09:32:00;13.05;84.66
68439;SHT31;55421;51.600;5.718;2023-11-19T09:34:27;13.03;84.56
68439;SHT31;55421;51.600;5.718;2023-11-19T09:36:54;13.03;84.62
68439;SHT31;55421;51.600;5.718;2023-11-19T09:39:20;13.04;84.67
68439;SHT31;55421;51.600;5.718;2023-11-19T09:41:47;13.06;84.59
68439;SHT31;55421;51.600;5.718;2023-11-19T09:44:14;13.10;84.54
68439;SHT31;55421;51.600;5.718;2023-11-19T09:46:44;13.14;84.47
68439;SHT31;55421;51.600;5.718;2023-11-19T09:49:10;13.19;84.42
68439;SHT31;55421;51.600;5.718;2023-11-19T09:51:39;13.28;84.33
68439;SHT31;55421;51.600;5.718;2023-11-19T09:54:06;13.36;84.18
68439;SHT31;55421;51.600;5.718;2023-11-19T09:56:33;13.39;83.89
68439;SHT31;55421;51.600;5.718;2023-11-19T09:59:03;13.43;83.71
68439;SHT31;55421;51.600;5.718;2023-11-19T10:01:31;13.48;83.56
68439;SHT31;55421;51.600;5.718;2023-11-19T10:03:58;13.56;83.32
68439;SHT31;55421;51.600;5.718;2023-11-19T10:06:25;13.61;83.21
68439;SHT31;55421;51.600;5.718;2023-11-19T10:08:53;13.62;83.19
68439;SHT31;55421;51.600;5.718;2023-11-19T10:11:19;13.66;83.06
68439;SHT31;55421;51.600;5.718;2023-11-19T10:13:46;13.66;82.71
68439;SHT31;55421;51.600;5.718;2023-11-19T10:16:14;13.65;82.72
68439;SHT31;55421;51.600;5.718;2023-11-19T10:18:48;13.68;82.46
68439;SHT31;55421;51.600;5.718;2023-11-19T10:21:19;13.71;82.10
68439;SHT31;55421;51.600;5.718;2023-11-19T10:23:52;13.73;81.99
68439;SHT31;55421;51.600;5.718;2023-11-19T10:26:26;13.73;81.53
68439;SHT31;55421;51.600;5.718;2023-11-19T10:28:53;13.73;81.64
68439;SHT31;55421;51.600;5.718;2023-11-19T10:31:22;13.73;81.75
68439;SHT31;55421;51.600;5.718;2023-11-19T10:33:51;13.72;81.60
68439;SHT31;55421;51.600;5.718;2023-11-19T10:36:19;13.74;81.42
68439;SHT31;55421;51.600;5.718;2023-11-19T10:38:55;13.79;81.48
68439;SHT31;55421;51.600;5.718;2023-11-19T10:41:27;13.83;81.65
68439;SHT31;55421;51.600;5.718;2023-11-19T10:43:57;13.85;81.10
68439;SHT31;55421;51.600;5.718;2023-11-19T10:46:37;13.85;80.92
68439;SHT31;55421;51.600;5.718;2023-11-19T10:49:06;13.86;80.80
68439;SHT31;55421;51.600;5.718;2023-11-19T10:51:36;13.86;81.03
68439;SHT31;55421;51.600;5.718;2023-11-19T10:54:11;13.85;81.09
68439;SHT31;55421;51.600;5.718;2023-11-19T10:56:45;13.89;80.99
68439;SHT31;55421;51.600;5.718;2023-11-19T10:59:21;13.97;81.02
68439;SHT31;55421;51.600;5.718;2023-11-19T11:01:50;14.01;80.99
68439;SHT31;55421;51.600;5.718;2023-11-19T11:04:24;14.07;81.11
68439;SHT31;55421;51.600;5.718;2023-11-19T11:06:54;14.12;81.03
68439;SHT31;55421;51.600;5.718;2023-11-19T11:09:27;14.14;80.83
68439;SHT31;55421;51.600;5.718;2023-11-19T11:11:54;14.14;80.63
68439;SHT31;55421;51.600;5.718;2023-11-19T11:14:23;14.14;80.23
68439;SHT31;55421;51.600;5.718;2023-11-19T11:16:51;14.14;80.01
68439;SHT31;55421;51.600;5.718;2023-11-19T11:19:19;14.14;80.25
68439;SHT31;55421;51.600;5.718;2023-11-19T11:21:50;14.13;80.34
68439;SHT31;55421;51.600;5.718;2023-11-19T11:27:28;14.13;80.30
68439;SHT31;55421;51.600;5.718;2023-11-19T11:36:18;14.01;80.03
68439;SHT31;55421;51.600;5.718;2023-11-19T11:38:49;13.97;80.14
68439;SHT31;55421;51.600;5.718;2023-11-19T11:41:22;13.92;80.04
68439;SHT31;55421;51.600;5.718;2023-11-19T11:43:55;13.87;79.95
68439;SHT31;55421;51.600;5.718;2023-11-19T11:49:02;13.82;80.53
68439;SHT31;55421;51.600;5.718;2023-11-19T11:54:25;13.79;80.79
68439;SHT31;55421;51.600;5.718;2023-11-19T11:57:01;13.78;80.90
68439;SHT31;55421;51.600;5.718;2023-11-19T12:02:08;13.71;81.08
68439;SHT31;55421;51.600;5.718;2023-11-19T12:04:36;13.69;81.11
68439;SHT31;55421;51.600;5.718;2023-11-19T12:09:41;13.71;81.19
68439;SHT31;55421;51.600;5.718;2023-11-19T12:12:20;13.72;81.40
68439;SHT31;55421;51.600;5.718;2023-11-19T12:20:00;13.93;81.45
68439;SHT31;55421;51.600;5.718;2023-11-19T12:22:36;13.96;81.20
68439;SHT31;55421;51.600;5.718;2023-11-19T12:25:05;13.97;81.26
68439;SHT31;55421;51.600;5.718;2023-11-19T12:27:33;14.00;81.42
68439;SHT31;55421;51.600;5.718;2023-11-19T12:30:03;14.02;81.12
68439;SHT31;55421;51.600;5.718;2023-11-19T12:32:40;14.02;80.93
68439;SHT31;55421;51.600;5.718;2023-11-19T12:35:11;14.05;80.66
68439;SHT31;55421;51.600;5.718;2023-11-19T12:37:42;14.11;80.73
68439;SHT31;55421;51.600;5.718;2023-11-19T12:40:14;14.21;80.50
68439;SHT31;55421;51.600;5.718;2023-11-19T12:42:46;14.28;79.88
68439;SHT31;55421;51.600;5.718;2023-11-19T12:45:14;14.29;79.82
68439;SHT31;55421;51.600;5.718;2023-11-19T12:47:43;14.29;79.71
68439;SHT31;55421;51.600;5.718;2023-11-19T12:50:10;14.29;79.52
68439;SHT31;55421;51.600;5.718;2023-11-19T12:52:36;14.30;79.45
68439;SHT31;55421;51.600;5.718;2023-11-19T12:55:05;14.30;79.47
68439;SHT31;55421;51.600;5.718;2023-11-19T12:57:54;14.27;79.49
68439;SHT31;55421;51.600;5.718;2023-11-19T13:00:23;14.26;79.40
68439;SHT31;55421;51.600;5.718;2023-11-19T13:02:53;14.29;79.41
68439;SHT31;55421;51.600;5.718;2023-11-19T13:05:26;14.34;79.33
68439;SHT31;55421;51.600;5.718;2023-11-19T13:13:16;14.28;79.29
68439;SHT31;55421;51.600;5.718;2023-11-19T13:15:43;14.20;79.31
68439;SHT31;55421;51.600;5.718;2023-11-19T13:18:11;14.12;79.38
68439;SHT31;55421;51.600;5.718;2023-11-19T13:20:38;14.04;79.83
68439;SHT31;55421;51.600;5.718;2023-11-19T13:23:05;13.97;80.32
68439;SHT31;55421;51.600;5.718;2023-11-19T13:25:36;13.92;80.80
68439;SHT31;55421;51.600;5.718;2023-11-19T13:28:03;13.85;81.07
68439;SHT31;55421;51.600;5.718;2023-11-19T13:30:30;13.77;81.43
68439;SHT31;55421;51.600;5.718;2023-11-19T13:32:56;13.70;81.61
68439;SHT31;55421;51.600;5.718;2023-11-19T13:35:23;13.63;81.87
68439;SHT31;55421;51.600;5.718;2023-11-19T13:37:49;13.59;82.09
68439;SHT31;55421;51.600;5.718;2023-11-19T13:40:16;13.60;82.32
68439;SHT31;55421;51.600;5.718;2023-11-19T13:42:42;13.64;82.47
68439;SHT31;55421;51.600;5.718;2023-11-19T13:45:10;13.69;82.39
68439;SHT31;55421;51.600;5.718;2023-11-19T13:47:39;13.71;82.22
68439;SHT31;55421;51.600;5.718;2023-11-19T13:50:08;13.77;81.97
68439;SHT31;55421;51.600;5.718;2023-11-19T13:52:37;13.85;82.09
68439;SHT31;55421;51.600;5.718;2023-11-19T13:55:06;13.91;82.08
68439;SHT31;55421;51.600;5.718;2023-11-19T13:57:35;13.94;81.83
68439;SHT31;55421;51.600;5.718;2023-11-19T14:00:03;13.93;81.63
68439;SHT31;55421;51.600;5.718;2023-11-19T14:02:34;13.91;81.57
68439;SHT31;55421;51.600;5.718;2023-11-19T14:05:00;13.88;81.45
68439;SHT31;55421;51.600;5.718;2023-11-19T14:07:27;13.83;81.28
68439;SHT31;55421;51.600;5.718;2023-11-19T14:09:54;13.77;81.27
68439;SHT31;55421;51.600;5.718;2023-11-19T14:12:20;13.74;81.49
68439;SHT31;55421;51.600;5.718;2023-11-19T14:14:47;13.72;81.53
68439;SHT31;55421;51.600;5.718;2023-11-19T14:17:13;13.68;81.43
68439;SHT31;55421;51.600;5.718;2023-11-19T14:19:42;13.64;81.58
68439;SHT31;55421;51.600;5.718;2023-11-19T14:22:10;13.60;81.60
68439;SHT31;55421;51.600;5.718;2023-11-19T14:24:37;13.59;81.75
68439;SHT31;55421;51.600;5.718;2023-11-19T14:27:05;13.56;81.82
68439;SHT31;55421;51.600;5.718;2023-11-19T14:29:32;13.55;81.97
68439;SHT31;55421;51.600;5.718;2023-11-19T14:32:00;13.55;81.91
68439;SHT31;55421;51.600;5.718;2023-11-19T14:34:29;13.53;81.85
68439;SHT31;55421;51.600;5.718;2023-11-19T14:36:57;13.49;81.80
68439;SHT31;55421;51.600;5.718;2023-11-19T14:39:23;13.46;81.99
68439;SHT31;55421;51.600;5.718;2023-11-19T14:41:50;13.44;81.97
68439;SHT31;55421;51.600;5.718;2023-11-19T14:44:18;13.40;81.99
68439;SHT31;55421;51.600;5.718;2023-11-19T14:46:46;13.38;81.94
68439;SHT31;55421;51.600;5.718;2023-11-19T14:49:13;13.36;81.87
68439;SHT31;55421;51.600;5.718;2023-11-19T14:51:40;13.35;81.98
68439;SHT31;55421;51.600;5.718;2023-11-19T14:54:06;13.33;82.19
68439;SHT31;55421;51.600;5.718;2023-11-19T14:56:33;13.32;82.37
68439;SHT31;55421;51.600;5.718;2023-11-19T14:58:59;13.32;82.40
68439;SHT31;55421;51.600;5.718;2023-11-19T15:01:26;13.31;82.47
68439;SHT31;55421;51.600;5.718;2023-11-19T15:03:54;13.30;82.54
68439;SHT31;55421;51.600;5.718;2023-11-19T15:06:24;13.28;82.55
68439;SHT31;55421;51.600;5.718;2023-11-19T15:08:56;13.25;82.57
68439;SHT31;55421;51.600;5.718;2023-11-19T15:11:23;13.22;82.47
68439;SHT31;55421;51.600;5.718;2023-11-19T15:13:50;13.18;82.37
68439;SHT31;55421;51.600;5.718;2023-11-19T15:16:16;13.16;82.45
68439;SHT31;55421;51.600;5.718;2023-11-19T15:18:49;13.14;82.49
68439;SHT31;55421;51.600;5.718;2023-11-19T15:21:15;13.11;82.54
68439;SHT31;55421;51.600;5.718;2023-11-19T15:23:42;13.10;82.71
68439;SHT31;55421;51.600;5.718;2023-11-19T15:26:09;13.09;82.84
68439;SHT31;55421;51.600;5.718;2023-11-19T15:28:36;13.06;83.18
68439;SHT31;55421;51.600;5.718;2023-11-19T15:31:03;13.02;83.46
68439;SHT31;55421;51.600;5.718;2023-11-19T15:33:30;12.97;83.64
68439;SHT31;55421;51.600;5.718;2023-11-19T15:35:57;12.92;83.80
68439;SHT31;55421;51.600;5.718;2023-11-19T15:38:23;12.87;83.96
68439;SHT31;55421;51.600;5.718;2023-11-19T15:40:49;12.82;84.10
68439;SHT31;55421;51.600;5.718;2023-11-19T15:43:16;12.78;84.28
68439;SHT31;55421;51.600;5.718;2023-11-19T15:45:42;12.72;84.42
68439;SHT31;55421;51.600;5.718;2023-11-19T15:48:09;12.69;84.56
68439;SHT31;55421;51.600;5.718;2023-11-19T15:50:39;12.64;84.66
68439;SHT31;55421;51.600;5.718;2023-11-19T15:53:06;12.60;84.77
68439;SHT31;55421;51.600;5.718;2023-11-19T15:55:32;12.57;84.86
68439;SHT31;55421;51.600;5.718;2023-11-19T15:57:59;12.56;84.97
68439;SHT31;55421;51.600;5.718;2023-11-19T16:00:25;12.55;85.09
68439;SHT31;55421;51.600;5.718;2023-11-19T16:02:52;12.55;85.19
68439;SHT31;55421;51.600;5.718;2023-11-19T16:05:19;12.55;85.25